Time;durP1;ratioP1;P1;durP2;ratioP2;P2;SDS_P1;SDS_P2;PMS_P1;PMS_P2;Temp;Humidity;BMP_temperature;BMP_pressure;BME280_temperature;BME280_humidity;BME280_pressure;Samples;Min_cycle;Max_cycle;Signal;HPM_P1;HPM_P2
2022/06/28 00:00:22;;;;;;;221.43;10.27;;;12.00;99.90;;;;;;5002612;28;20026;-57
2022/06/28 00:02:48;;;;;;;200.98;11.18;;;12.00;99.90;;;;;;5005686;28;20449;-57
2022/06/28 00:05:14;;;;;;;279.13;12.43;;;12.00;99.90;;;;;;5012049;28;20112;-56
2022/06/28 00:07:40;;;;;;;102.15;8.73;;;12.00;99.90;;;;;;5007011;28;20026;-55
2022/06/28 00:10:07;;;;;;;161.00;11.23;;;12.00;99.90;;;;;;4989411;28;20026;-57
2022/06/28 00:12:33;;;;;;;147.32;11.10;;;12.00;99.90;;;;;;5002838;28;20125;-55
2022/06/28 00:17:43;;;;;;;200.50;12.98;;;12.00;99.90;;;;;;5010798;28;20101;-54
2022/06/28 00:20:10;;;;;;;179.23;11.65;;;12.00;99.90;;;;;;5009646;28;20101;-56
2022/06/28 00:22:35;;;;;;;193.70;11.85;;;12.00;99.90;;;;;;4997514;28;20030;-56
2022/06/28 00:25:01;;;;;;;152.02;10.68;;;12.00;99.90;;;;;;5014124;28;20030;-51
2022/06/28 00:27:27;;;;;;;184.80;11.82;;;12.00;99.90;;;;;;5013231;28;20495;-55
2022/06/28 00:29:52;;;;;;;282.38;13.10;;;11.90;99.90;;;;;;4998422;28;20045;-54
2022/06/28 00:32:18;;;;;;;152.27;10.45;;;11.90;99.90;;;;;;4997594;28;20018;-56
2022/06/28 00:34:44;;;;;;;87.57;8.80;;;11.90;99.90;;;;;;4997546;28;20510;-52
2022/06/28 00:37:10;;;;;;;110.47;8.57;;;11.90;99.90;;;;;;5000338;28;20021;-54
2022/06/28 00:39:35;;;;;;;62.28;7.75;;;11.80;99.90;;;;;;5000132;28;20480;-56
2022/06/28 00:42:01;;;;;;;43.10;7.30;;;11.80;99.90;;;;;;4998385;28;20042;-55
2022/06/28 00:44:27;;;;;;;62.65;8.40;;;11.80;99.90;;;;;;4993183;28;20157;-56
2022/06/28 00:46:53;;;;;;;30.33;8.32;;;11.80;99.90;;;;;;4998352;28;20041;-57
2022/06/28 00:49:20;;;;;;;50.78;7.80;;;11.70;99.90;;;;;;4997054;28;20034;-52
2022/06/28 00:51:46;;;;;;;43.45;7.72;;;11.80;99.90;;;;;;5001050;28;20046;-54
2022/06/28 00:54:12;;;;;;;63.72;7.90;;;11.80;99.90;;;;;;5001033;28;20119;-56
2022/06/28 00:56:38;;;;;;;127.20;10.45;;;11.80;99.90;;;;;;4992298;28;20019;-56
2022/06/28 00:59:03;;;;;;;89.95;8.88;;;11.80;99.90;;;;;;5004497;28;20034;-57
2022/06/28 01:01:29;;;;;;;79.70;7.97;;;11.80;99.90;;;;;;4995670;28;20121;-55
2022/06/28 01:03:55;;;;;;;77.10;10.30;;;11.80;99.90;;;;;;4996665;28;20113;-56
2022/06/28 01:06:21;;;;;;;189.85;11.93;;;11.80;99.90;;;;;;4996005;28;20388;-52
2022/06/28 01:08:53;;;;;;;152.35;12.73;;;11.80;99.90;;;;;;5042169;28;20538;-56
2022/06/28 01:11:19;;;;;;;161.35;11.13;;;11.80;99.90;;;;;;5015678;28;20050;-57
2022/06/28 01:13:47;;;;;;;209.65;11.95;;;11.80;99.90;;;;;;5017253;28;20022;-56
2022/06/28 01:16:13;;;;;;;155.57;12.20;;;11.80;99.90;;;;;;5010777;28;20022;-54
2022/06/28 01:18:39;;;;;;;167.73;12.32;;;11.90;99.90;;;;;;4999607;28;20033;-53
2022/06/28 01:21:06;;;;;;;136.70;12.13;;;11.80;99.90;;;;;;5007791;28;20034;-53
2022/06/28 01:23:32;;;;;;;213.15;13.18;;;11.80;99.90;;;;;;4998864;28;20034;-55
2022/06/28 01:25:58;;;;;;;124.07;9.95;;;11.90;99.90;;;;;;4994273;28;20081;-56
2022/06/28 01:28:24;;;;;;;78.10;8.57;;;11.90;99.90;;;;;;4992647;28;20552;-56
2022/06/28 01:30:50;;;;;;;159.65;11.82;;;11.80;99.90;;;;;;5000191;28;20110;-53
2022/06/28 01:33:16;;;;;;;240.00;13.00;;;11.80;99.90;;;;;;4994213;28;20022;-55
2022/06/28 01:35:41;;;;;;;196.18;11.52;;;11.80;99.90;;;;;;5010456;28;20064;-57
2022/06/28 01:38:09;;;;;;;231.70;12.80;;;11.70;99.90;;;;;;5006323;28;20034;-56
2022/06/28 01:40:35;;;;;;;307.42;14.27;;;11.80;99.90;;;;;;5006770;28;20057;-56
2022/06/28 01:43:01;;;;;;;151.98;12.13;;;11.70;99.90;;;;;;5005309;28;20042;-55
2022/06/28 01:45:28;;;;;;;186.75;14.60;;;11.70;99.90;;;;;;5001541;28;20037;-55
2022/06/28 01:47:54;;;;;;;119.85;10.32;;;11.70;99.90;;;;;;5006108;28;20070;-53
2022/06/28 01:50:20;;;;;;;174.43;12.20;;;11.80;99.90;;;;;;5007385;28;20056;-54
2022/06/28 01:52:46;;;;;;;154.60;12.70;;;11.70;99.90;;;;;;5001649;28;20250;-56
2022/06/28 01:55:12;;;;;;;181.45;11.88;;;11.70;99.90;;;;;;5006774;28;20529;-55
2022/06/28 01:57:39;;;;;;;93.93;11.07;;;11.60;99.90;;;;;;5007226;28;20041;-54
2022/06/28 02:00:06;;;;;;;50.75;9.02;;;11.60;99.90;;;;;;5008126;28;20052;-57
2022/06/28 02:02:32;;;;;;;72.65;9.75;;;11.50;99.90;;;;;;5004235;28;20117;-58
2022/06/28 02:04:58;;;;;;;33.50;9.50;;;11.50;99.90;;;;;;5006335;28;20121;-55
2022/06/28 02:07:23;;;;;;;29.60;8.43;;;11.50;99.90;;;;;;5004304;28;20377;-57
2022/06/28 02:09:49;;;;;;;41.50;8.55;;;11.40;99.90;;;;;;4999249;28;20158;-57
2022/06/28 02:12:15;;;;;;;61.05;8.05;;;11.40;99.90;;;;;;4985215;28;20045;-56
2022/06/28 02:14:40;;;;;;;54.05;8.80;;;11.40;99.90;;;;;;4999090;28;20396;-57
2022/06/28 02:17:06;;;;;;;281.10;13.27;;;11.30;99.90;;;;;;5011003;28;20112;-57
2022/06/28 02:19:31;;;;;;;163.77;10.60;;;11.30;99.90;;;;;;4998390;28;20265;-55
2022/06/28 02:21:57;;;;;;;155.95;10.60;;;11.30;99.90;;;;;;4990659;28;20034;-56
2022/06/28 02:24:23;;;;;;;119.15;9.65;;;11.30;99.90;;;;;;4992712;28;20855;-56
2022/06/28 02:26:48;;;;;;;37.97;7.65;;;11.30;99.90;;;;;;4994308;28;20839;-55
2022/06/28 02:29:14;;;;;;;130.80;8.80;;;11.20;99.90;;;;;;4997471;28;20142;-55
2022/06/28 02:31:39;;;;;;;137.90;10.27;;;11.20;99.90;;;;;;4991403;28;20396;-57
2022/06/28 02:34:05;;;;;;;55.13;8.63;;;11.20;99.90;;;;;;4992436;28;20030;-57
2022/06/28 02:41:45;;;;;;;102.18;9.75;;;11.10;99.90;;;;;;4994304;28;20018;-54
2022/06/28 02:44:11;;;;;;;122.85;10.82;;;11.10;99.90;;;;;;4991837;28;20030;-55
2022/06/28 02:46:37;;;;;;;357.10;20.42;;;11.10;99.90;;;;;;4988620;28;20031;-55
2022/06/28 02:49:03;;;;;;;150.80;13.98;;;11.10;99.90;;;;;;4991705;28;20042;-55
2022/06/28 02:51:29;;;;;;;99.72;12.18;;;11.10;99.90;;;;;;4989308;28;20041;-56
2022/06/28 02:53:55;;;;;;;106.53;11.95;;;11.10;99.90;;;;;;4989038;28;20109;-55
2022/06/28 02:56:21;;;;;;;206.98;15.35;;;11.10;99.90;;;;;;4991969;28;20477;-57
2022/06/28 02:58:47;;;;;;;192.52;14.35;;;11.10;99.90;;;;;;4989756;28;20092;-56
2022/06/28 03:01:13;;;;;;;63.10;11.98;;;11.10;99.90;;;;;;4997624;28;20408;-53
2022/06/28 03:03:39;;;;;;;228.45;15.90;;;11.10;99.90;;;;;;4990637;28;20026;-57
2022/06/28 03:06:05;;;;;;;99.85;13.25;;;11.00;99.90;;;;;;4987879;28;20038;-58
2022/06/28 03:08:31;;;;;;;103.00;13.68;;;11.00;99.90;;;;;;4993146;28;20506;-57
2022/06/28 03:10:57;;;;;;;93.47;14.95;;;11.00;99.90;;;;;;4976569;28;20042;-57
2022/06/28 03:13:22;;;;;;;41.65;15.30;;;11.00;99.90;;;;;;4994572;28;20072;-57
2022/06/28 03:15:48;;;;;;;61.53;17.00;;;11.10;99.90;;;;;;4994532;28;20022;-56
2022/06/28 03:18:14;;;;;;;77.72;15.57;;;11.10;99.90;;;;;;4990568;28;20404;-59
2022/06/28 03:20:40;;;;;;;44.95;12.73;;;11.10;99.90;;;;;;4991137;28;20080;-57
2022/06/28 03:23:06;;;;;;;56.75;13.57;;;11.10;99.90;;;;;;4990123;28;20121;-54
2022/06/28 03:25:32;;;;;;;26.77;14.68;;;11.10;99.90;;;;;;4991089;28;20118;-56
2022/06/28 03:27:58;;;;;;;39.47;15.40;;;11.10;99.90;;;;;;4991974;28;20137;-55
2022/06/28 03:30:24;;;;;;;30.90;13.95;;;11.00;99.90;;;;;;4989219;28;20029;-54
2022/06/28 03:32:50;;;;;;;21.45;12.52;;;11.00;99.90;;;;;;4983086;28;20066;-54
2022/06/28 03:35:16;;;;;;;21.05;11.90;;;11.00;99.90;;;;;;4997481;28;20050;-59
2022/06/28 03:37:41;;;;;;;41.22;12.73;;;11.00;99.90;;;;;;4993609;28;20034;-58
2022/06/28 03:40:09;;;;;;;24.17;13.13;;;10.90;99.90;;;;;;4989524;28;20034;-59
2022/06/28 03:42:35;;;;;;;27.88;14.30;;;10.90;99.90;;;;;;4991981;28;20109;-58
2022/06/28 03:45:02;;;;;;;20.35;13.90;;;11.00;99.90;;;;;;4991446;28;20041;-57
2022/06/28 03:47:28;;;;;;;24.75;11.27;;;11.00;99.90;;;;;;4982997;28;20069;-57
2022/06/28 03:49:53;;;;;;;53.72;10.93;;;11.00;99.90;;;;;;4982872;28;20680;-58
2022/06/28 03:52:19;;;;;;;64.68;10.95;;;11.10;99.90;;;;;;4997116;28;20026;-58
2022/06/28 03:54:45;;;;;;;84.95;10.15;;;11.10;99.90;;;;;;4997942;28;20023;-58
2022/06/28 03:57:10;;;;;;;98.70;10.82;;;11.10;99.90;;;;;;4989908;28;20558;-59
2022/06/28 03:59:36;;;;;;;78.00;9.85;;;11.10;99.90;;;;;;4993550;28;20065;-58
2022/06/28 04:02:04;;;;;;;94.97;11.63;;;11.20;99.90;;;;;;4989678;28;20027;-57
2022/06/28 04:04:30;;;;;;;125.20;10.85;;;11.20;99.90;;;;;;4990295;28;20496;-56
2022/06/28 04:06:55;;;;;;;217.75;13.50;;;11.20;99.90;;;;;;4988657;28;20485;-59
2022/06/28 04:09:21;;;;;;;112.60;10.50;;;11.30;99.90;;;;;;4983999;28;20157;-58
2022/06/28 04:11:47;;;;;;;142.02;12.20;;;11.30;99.90;;;;;;4971291;28;20039;-58
2022/06/28 04:14:13;;;;;;;76.28;9.00;;;11.40;99.90;;;;;;4987716;28;20039;-58
2022/06/28 04:16:41;;;;;;;153.40;11.27;;;11.50;99.90;;;;;;4995634;28;20069;-56
2022/06/28 04:19:07;;;;;;;109.15;9.65;;;11.60;99.90;;;;;;4993050;28;20029;-56
2022/06/28 04:21:33;;;;;;;54.60;7.35;;;11.60;99.90;;;;;;4990093;28;20157;-55
2022/06/28 04:23:59;;;;;;;112.65;10.27;;;11.80;99.90;;;;;;4991170;28;20105;-55
2022/06/28 04:26:24;;;;;;;57.10;8.73;;;11.80;99.90;;;;;;4995604;28;20026;-54
2022/06/28 04:28:50;;;;;;;228.98;10.93;;;12.00;99.90;;;;;;4990465;28;20030;-54
2022/06/28 04:31:15;;;;;;;229.52;9.75;;;12.00;99.90;;;;;;4990042;28;20122;-56
2022/06/28 04:33:41;;;;;;;185.55;9.38;;;12.10;99.90;;;;;;4989946;28;20026;-54
2022/06/28 04:36:07;;;;;;;131.57;9.48;;;12.20;99.90;;;;;;4988066;28;20372;-56
2022/06/28 04:38:33;;;;;;;142.77;8.05;;;12.30;99.90;;;;;;4988798;28;20039;-54
2022/06/28 04:40:59;;;;;;;204.60;9.63;;;12.40;99.90;;;;;;4996971;28;20049;-56
2022/06/28 04:43:24;;;;;;;153.57;9.60;;;12.50;99.90;;;;;;4989019;28;20030;-53
2022/06/28 04:45:50;;;;;;;198.00;10.57;;;12.60;99.90;;;;;;4993545;28;20030;-55
2022/06/28 04:48:16;;;;;;;201.95;11.48;;;12.60;99.90;;;;;;4989618;28;20439;-55
2022/06/28 04:50:42;;;;;;;291.60;13.95;;;12.80;99.90;;;;;;4988857;28;20062;-56
2022/06/28 04:53:07;;;;;;;306.55;15.48;;;12.90;99.90;;;;;;4996115;28;20033;-55
2022/06/28 04:55:33;;;;;;;374.80;13.93;;;12.80;99.90;;;;;;4990284;28;20031;-55
2022/06/28 04:57:59;;;;;;;128.98;8.25;;;12.90;99.90;;;;;;4987776;28;20046;-56
2022/06/28 05:00:25;;;;;;;127.28;9.43;;;13.10;99.90;;;;;;4994099;28;20476;-55
2022/06/28 05:02:50;;;;;;;169.75;9.68;;;13.40;99.90;;;;;;4989285;28;20045;-56
2022/06/28 05:05:16;;;;;;;98.05;9.55;;;13.70;99.90;;;;;;4987448;28;20041;-56
2022/06/28 05:07:41;;;;;;;68.75;7.15;;;14.20;99.90;;;;;;4987855;28;20072;-56
2022/06/28 05:10:07;;;;;;;28.63;6.72;;;14.60;99.90;;;;;;4987407;28;20786;-56
2022/06/28 05:12:33;;;;;;;36.20;7.13;;;14.60;99.90;;;;;;4968680;28;20042;-57
2022/06/28 05:14:59;;;;;;;34.00;6.75;;;14.90;99.90;;;;;;4989396;28;20038;-53
2022/06/28 05:17:24;;;;;;;50.42;7.32;;;15.10;99.90;;;;;;4988711;28;20033;-55
2022/06/28 05:19:51;;;;;;;23.48;6.82;;;15.10;99.90;;;;;;4990075;28;20448;-55
2022/06/28 05:22:16;;;;;;;27.20;6.68;;;15.10;99.90;;;;;;4985292;28;20046;-55
2022/06/28 05:24:42;;;;;;;27.88;6.15;;;15.60;99.90;;;;;;4990547;28;20031;-54
2022/06/28 05:27:08;;;;;;;37.78;6.88;;;15.60;99.90;;;;;;4985390;28;20094;-56
2022/06/28 05:29:34;;;;;;;17.13;6.75;;;15.80;99.90;;;;;;4991114;28;20033;-53
2022/06/28 05:31:59;;;;;;;10.65;5.35;;;16.00;99.90;;;;;;4994288;28;20026;-51
2022/06/28 05:34:25;;;;;;;44.13;6.75;;;16.10;99.90;;;;;;4988825;28;20066;-54
2022/06/28 05:36:51;;;;;;;27.55;6.28;;;16.10;99.90;;;;;;4988542;28;20044;-56
2022/06/28 05:39:17;;;;;;;25.40;5.93;;;15.90;99.90;;;;;;4988500;28;20049;-56
2022/06/28 05:41:43;;;;;;;16.75;5.93;;;16.10;99.90;;;;;;4993738;28;20088;-57
2022/06/28 05:44:10;;;;;;;17.83;5.80;;;16.80;99.90;;;;;;4989416;28;20025;-55
2022/06/28 05:46:36;;;;;;;160.48;9.00;;;17.10;99.90;;;;;;4997284;28;20093;-55
2022/06/28 05:49:02;;;;;;;39.22;6.07;;;17.30;99.90;;;;;;4988396;28;20022;-55
2022/06/28 05:51:29;;;;;;;18.08;5.80;;;17.00;99.90;;;;;;4988025;28;20564;-55
2022/06/28 05:53:55;;;;;;;20.63;6.22;;;16.50;99.90;;;;;;4991622;28;20058;-56
2022/06/28 05:56:21;;;;;;;9.60;6.70;;;16.30;99.90;;;;;;4986771;28;20113;-56
2022/06/28 05:58:47;;;;;;;13.27;7.18;;;16.30;99.90;;;;;;4991062;28;20560;-56
2022/06/28 06:01:13;;;;;;;8.48;5.95;;;16.40;99.90;;;;;;4992267;28;20030;-55
2022/06/28 06:03:38;;;;;;;19.17;5.40;;;16.80;99.90;;;;;;4993336;28;20182;-57
2022/06/28 06:06:04;;;;;;;6.85;5.25;;;17.80;99.90;;;;;;4995298;28;20050;-48
2022/06/28 06:08:29;;;;;;;6.18;5.57;;;17.80;99.90;;;;;;4998856;28;20041;-55
2022/06/28 06:10:55;;;;;;;8.57;5.45;;;17.80;99.90;;;;;;4992739;28;20065;-56
2022/06/28 06:13:21;;;;;;;7.38;5.68;;;17.80;99.90;;;;;;4974676;28;20042;-57
2022/06/28 06:15:46;;;;;;;6.00;5.32;;;17.70;99.90;;;;;;4981834;28;20409;-57
2022/06/28 06:18:12;;;;;;;5.03;4.45;;;18.30;99.90;;;;;;4992853;28;20029;-57
2022/06/28 06:20:38;;;;;;;7.05;4.32;;;19.60;99.90;;;;;;4991907;28;20038;-55
2022/06/28 06:23:03;;;;;;;5.35;4.35;;;21.20;99.90;;;;;;4993886;28;20037;-56
2022/06/28 06:25:29;;;;;;;6.35;4.30;;;21.10;99.90;;;;;;4994659;28;20373;-56
2022/06/28 06:27:54;;;;;;;4.80;3.72;;;21.20;99.90;;;;;;4992596;28;20535;-57
2022/06/28 06:30:20;;;;;;;4.68;3.72;;;22.20;99.90;;;;;;4986203;28;20116;-57
2022/06/28 06:32:46;;;;;;;5.40;3.58;;;23.80;98.50;;;;;;4991790;28;20027;-57
2022/06/28 06:35:11;;;;;;;3.58;3.15;;;24.90;94.20;;;;;;4990623;28;20101;-58
2022/06/28 06:37:37;;;;;;;5.05;3.00;;;25.80;92.90;;;;;;4983710;28;20022;-57
2022/06/28 06:40:03;;;;;;;5.93;3.40;;;26.50;91.60;;;;;;4987572;28;20137;-51
2022/06/28 06:42:29;;;;;;;4.10;2.90;;;26.40;87.50;;;;;;4984571;28;20498;-57
2022/06/28 06:44:55;;;;;;;3.38;2.65;;;28.00;83.40;;;;;;4993516;28;20046;-57
2022/06/28 06:47:21;;;;;;;5.25;2.92;;;28.70;80.90;;;;;;4994941;28;20065;-57
2022/06/28 06:49:46;;;;;;;4.00;2.60;;;28.50;78.80;;;;;;4994013;28;20066;-57
2022/06/28 06:52:12;;;;;;;4.38;2.70;;;29.50;74.20;;;;;;4990312;28;20105;-58
2022/06/28 06:54:38;;;;;;;4.50;2.50;;;29.00;76.20;;;;;;4996419;28;20022;-58
2022/06/28 06:57:04;;;;;;;4.43;2.40;;;28.70;75.90;;;;;;4986842;28;20039;-58
2022/06/28 06:59:29;;;;;;;7.65;2.72;;;28.40;75.20;;;;;;4993872;28;20034;-58
2022/06/28 07:01:55;;;;;;;2.88;2.35;;;28.80;72.00;;;;;;4991826;28;20658;-58
2022/06/28 07:04:21;;;;;;;8.98;2.45;;;28.50;75.40;;;;;;4990493;28;20066;-58
2022/06/28 07:06:46;;;;;;;4.15;2.40;;;28.40;71.20;;;;;;4990266;28;20380;-58
2022/06/28 07:09:12;;;;;;;5.85;2.22;;;28.80;72.10;;;;;;4989857;28;20035;-57
2022/06/28 07:11:38;;;;;;;2.95;2.17;;;28.70;71.50;;;;;;4978978;28;20092;-59
2022/06/28 07:14:04;;;;;;;2.92;2.28;;;28.70;70.60;;;;;;4973816;28;20136;-51
2022/06/28 07:16:30;;;;;;;3.75;2.30;;;28.70;70.00;;;;;;4994094;28;20060;-55
2022/06/28 07:18:55;;;;;;;2.20;1.95;;;28.70;71.00;;;;;;4993452;28;20031;-58
2022/06/28 07:21:21;;;;;;;2.83;1.98;;;29.50;73.80;;;;;;4989031;28;20042;-57
2022/06/28 07:23:47;;;;;;;5.93;2.10;;;30.80;68.90;;;;;;4988117;28;20097;-58
2022/06/28 07:26:13;;;;;;;2.92;2.22;;;30.60;69.90;;;;;;4994106;28;20084;-57
2022/06/28 07:28:38;;;;;;;3.28;1.92;;;30.10;69.80;;;;;;4990934;28;20041;-58
2022/06/28 07:31:04;;;;;;;2.78;2.10;;;30.60;69.50;;;;;;4992231;28;20026;-58
2022/06/28 07:33:30;;;;;;;3.90;1.85;;;29.90;69.70;;;;;;4991179;28;20034;-57
2022/06/28 07:35:56;;;;;;;3.42;1.80;;;30.40;67.90;;;;;;4986608;28;20026;-57
2022/06/28 07:38:22;;;;;;;3.72;1.88;;;31.60;67.40;;;;;;4989958;28;20030;-57
2022/06/28 07:40:47;;;;;;;3.05;1.90;;;32.10;64.90;;;;;;4990674;28;20058;-57
2022/06/28 07:43:13;;;;;;;2.08;1.80;;;32.10;65.40;;;;;;4999560;28;20045;-57
2022/06/28 07:45:40;;;;;;;2.38;1.60;;;32.40;66.20;;;;;;4994120;28;20026;-57
2022/06/28 07:48:06;;;;;;;2.65;1.92;;;31.40;67.20;;;;;;4992248;28;20488;-51
2022/06/28 07:53:16;;;;;;;12.10;2.42;;;30.60;64.30;;;;;;4990640;28;20058;-58
2022/06/28 07:55:42;;;;;;;2.92;2.13;;;30.40;67.50;;;;;;4990272;28;20030;-58
2022/06/28 07:58:07;;;;;;;2.53;2.00;;;31.00;65.90;;;;;;4985813;28;20030;-58
2022/06/28 08:00:33;;;;;;;3.85;2.30;;;31.20;65.50;;;;;;4989500;28;20049;-58
2022/06/28 08:02:59;;;;;;;4.10;2.53;;;29.70;65.80;;;;;;5000321;28;20057;-58
2022/06/28 08:05:26;;;;;;;5.50;2.20;;;30.60;65.50;;;;;;4993701;28;20030;-58
2022/06/28 08:07:51;;;;;;;7.00;2.38;;;30.30;66.10;;;;;;4994313;28;20034;-59
2022/06/28 08:10:17;;;;;;;5.47;2.10;;;30.10;66.60;;;;;;4994258;28;20441;-58
2022/06/28 08:12:44;;;;;;;3.40;2.03;;;30.40;67.10;;;;;;4963143;28;20081;-57
2022/06/28 08:15:10;;;;;;;3.78;2.03;;;30.70;67.60;;;;;;4993737;28;20076;-57
2022/06/28 08:17:36;;;;;;;4.22;2.10;;;31.40;64.80;;;;;;4991067;28;20042;-58
2022/06/28 08:20:02;;;;;;;5.80;2.10;;;30.60;63.90;;;;;;4994093;28;20045;-58
2022/06/28 08:22:28;;;;;;;3.22;1.90;;;29.70;66.20;;;;;;4990786;28;20034;-59
2022/06/28 08:24:53;;;;;;;3.38;1.80;;;29.90;65.10;;;;;;4998344;28;20037;-58
2022/06/28 08:27:19;;;;;;;3.50;1.73;;;30.10;65.30;;;;;;4990750;28;20038;-59
2022/06/28 08:29:46;;;;;;;4.75;1.60;;;30.40;67.10;;;;;;4999195;28;20172;-58
2022/06/28 08:32:12;;;;;;;3.03;1.60;;;31.00;64.30;;;;;;4998554;28;20031;-58
2022/06/28 08:34:38;;;;;;;4.75;1.80;;;31.10;63.10;;;;;;4991068;28;20053;-59
2022/06/28 08:37:05;;;;;;;3.03;1.70;;;30.90;59.80;;;;;;4991845;28;20034;-58
2022/06/28 08:39:31;;;;;;;3.10;2.17;;;30.40;62.60;;;;;;4994493;28;20114;-58
2022/06/28 08:42:02;;;;;;;5.30;2.17;;;30.80;66.70;;;;;;4991140;28;20043;-58
2022/06/28 08:44:33;;;;;;;5.75;1.73;;;31.10;62.60;;;;;;4993608;28;20062;-58
2022/06/28 08:47:00;;;;;;;4.13;1.70;;;31.40;60.80;;;;;;4986523;28;20077;-59
2022/06/28 08:49:39;;;;;;;3.28;1.60;;;31.30;62.60;;;;;;4995176;28;20508;-59
2022/06/28 08:52:07;;;;;;;5.35;1.40;;;31.40;60.30;;;;;;4990355;28;20113;-59
2022/06/28 08:54:34;;;;;;;3.50;1.50;;;31.10;59.40;;;;;;4990022;28;20035;-59
2022/06/28 08:56:59;;;;;;;5.10;1.35;;;31.80;57.60;;;;;;4988903;28;20018;-58
2022/06/28 08:59:26;;;;;;;4.45;1.30;;;31.40;56.90;;;;;;4989845;28;20025;-59
2022/06/28 09:01:52;;;;;;;6.43;1.98;;;30.80;54.70;;;;;;4988687;28;20034;-59
2022/06/28 09:04:18;;;;;;;5.93;1.70;;;30.70;55.70;;;;;;4994365;28;20475;-57
2022/06/28 09:06:43;;;;;;;3.20;1.13;;;30.70;54.60;;;;;;4990875;28;20030;-59
2022/06/28 09:09:10;;;;;;;3.15;1.23;;;30.20;56.20;;;;;;4991183;28;20062;-58
2022/06/28 09:11:43;;;;;;;5.80;1.40;;;31.10;59.90;;;;;;4991847;28;20026;-59
2022/06/28 09:14:30;;;;;;;3.40;1.13;;;31.90;57.70;;;;;;4974503;28;20077;-58
2022/06/28 09:16:58;;;;;;;4.07;1.60;;;32.40;57.00;;;;;;4984946;28;20027;-59
2022/06/28 09:19:35;;;;;;;2.10;0.98;;;31.50;59.90;;;;;;4988047;28;20117;-58
2022/06/28 09:22:04;;;;;;;6.32;1.02;;;31.20;55.80;;;;;;4995747;28;20027;-59
2022/06/28 09:24:31;;;;;;;4.53;1.27;;;31.10;57.90;;;;;;4985651;28;20073;-59
2022/06/28 09:27:07;;;;;;;2.28;1.05;;;31.50;54.70;;;;;;4994035;28;20023;-58
2022/06/28 09:29:49;;;;;;;2.88;1.05;;;31.20;55.30;;;;;;4993316;28;20026;-59
2022/06/28 09:32:15;;;;;;;2.80;1.02;;;31.10;57.70;;;;;;5000791;28;20034;-58
2022/06/28 09:34:57;;;;;;;5.07;1.20;;;31.60;56.30;;;;;;4999105;28;20022;-56
2022/06/28 09:37:48;;;;;;;3.25;1.60;;;31.70;52.80;;;;;;4987473;28;20026;-57
2022/06/28 09:40:24;;;;;;;3.58;0.98;;;31.50;53.40;;;;;;4991007;28;20538;-58
2022/06/28 09:43:14;;;;;;;2.40;0.90;;;31.50;54.00;;;;;;4997094;28;20034;-57
2022/06/28 09:45:50;;;;;;;4.22;1.00;;;30.60;53.90;;;;;;4990494;28;20058;-56
2022/06/28 09:48:20;;;;;;;4.13;1.00;;;30.70;54.90;;;;;;4994890;28;20038;-56
2022/06/28 09:50:46;;;;;;;2.80;1.10;;;31.60;56.60;;;;;;4992755;28;20559;-58
2022/06/28 09:53:14;;;;;;;4.20;1.17;;;31.40;55.20;;;;;;4998235;28;20030;-58
2022/06/28 09:55:41;;;;;;;3.50;1.40;;;32.20;53.60;;;;;;4993383;28;20034;-58
2022/06/28 09:58:08;;;;;;;2.53;1.00;;;32.00;53.00;;;;;;4991276;28;20041;-59
2022/06/28 10:00:35;;;;;;;4.22;1.20;;;31.30;54.80;;;;;;4998823;28;20026;-59
2022/06/28 10:03:01;;;;;;;2.35;0.90;;;31.00;54.40;;;;;;4993293;28;20388;-58
2022/06/28 10:05:29;;;;;;;3.45;0.93;;;30.20;54.90;;;;;;4991126;28;20049;-58
2022/06/28 10:07:54;;;;;;;3.97;1.50;;;30.00;55.90;;;;;;4992353;28;20428;-56
2022/06/28 10:10:22;;;;;;;3.33;1.00;;;30.20;58.10;;;;;;4990055;28;20027;-57
2022/06/28 10:15:35;;;;;;;3.47;0.90;;;29.50;59.00;;;;;;4990383;28;20054;-57
2022/06/28 10:18:08;;;;;;;4.05;1.17;;;29.20;58.00;;;;;;4987565;28;20122;-57
2022/06/28 10:20:37;;;;;;;4.85;1.20;;;29.20;59.60;;;;;;4988925;28;20512;-56
2022/06/28 10:23:42;;;;;;;4.45;1.30;;;28.20;58.60;;;;;;4989423;28;20038;-56
2022/06/28 10:26:19;;;;;;;2.35;0.95;;;27.50;59.60;;;;;;4974866;28;20411;-49
2022/06/28 10:29:04;;;;;;;8.80;1.13;;;27.60;60.30;;;;;;4989438;28;20072;-57
2022/06/28 10:31:30;;;;;;;2.03;0.90;;;27.40;60.70;;;;;;4989908;28;20026;-56
2022/06/28 10:34:01;;;;;;;5.25;0.90;;;27.30;60.00;;;;;;4991198;28;20041;-57
2022/06/28 10:36:33;;;;;;;5.80;0.80;;;27.40;61.50;;;;;;4991162;28;20121;-57
2022/06/28 10:39:07;;;;;;;2.45;0.80;;;27.60;61.20;;;;;;4989122;28;20566;-56
2022/06/28 10:42:04;;;;;;;5.93;1.23;;;27.60;59.20;;;;;;4991074;28;21385;-56
2022/06/28 10:44:32;;;;;;;1.95;0.98;;;27.40;58.80;;;;;;4991456;28;20030;-56
2022/06/28 10:47:01;;;;;;;4.90;0.90;;;27.00;59.60;;;;;;4990904;28;20026;-56
2022/06/28 10:49:54;;;;;;;1.98;0.60;;;27.10;61.50;;;;;;4987977;28;20030;-55
2022/06/28 10:52:30;;;;;;;3.38;0.77;;;27.30;61.20;;;;;;4986188;28;20109;-57
2022/06/28 10:54:56;;;;;;;5.75;0.85;;;27.20;59.40;;;;;;4985214;28;20038;-57
2022/06/28 10:57:42;;;;;;;2.55;0.90;;;27.10;59.20;;;;;;4986758;28;20023;-55
2022/06/28 11:00:10;;;;;;;1.13;0.68;;;27.00;60.70;;;;;;4988005;28;20035;-53
2022/06/28 11:02:51;;;;;;;2.00;0.80;;;26.50;60.80;;;;;;4999437;28;20510;-53
2022/06/28 11:05:19;;;;;;;3.00;1.02;;;26.30;61.00;;;;;;4995007;28;20038;-56
2022/06/28 11:07:59;;;;;;;2.80;1.20;;;26.60;62.30;;;;;;4990581;28;20030;-55
2022/06/28 11:10:25;;;;;;;5.25;1.25;;;26.70;60.70;;;;;;4995004;28;20041;-57
2022/06/28 11:12:51;;;;;;;5.70;0.90;;;26.70;61.60;;;;;;4997929;28;20026;-57
2022/06/28 11:15:39;;;;;;;2.85;1.20;;;26.50;59.90;;;;;;4963118;28;20049;-54
2022/06/28 11:18:14;;;;;;;4.70;1.02;;;26.50;59.10;;;;;;4997553;28;20387;-57
2022/06/28 11:20:40;;;;;;;2.10;0.90;;;26.50;60.40;;;;;;4994628;28;20033;-57
2022/06/28 11:23:06;;;;;;;3.97;0.82;;;26.40;58.90;;;;;;4996199;28;20057;-57
2022/06/28 11:28:16;;;;;;;2.58;1.00;;;26.20;57.00;;;;;;5001694;28;20080;-55
2022/06/28 11:30:42;;;;;;;2.45;1.20;;;26.30;58.80;;;;;;4992016;28;20082;-57
2022/06/28 11:33:10;;;;;;;2.35;0.95;;;26.20;58.40;;;;;;4995210;28;20921;-54
2022/06/28 11:35:36;;;;;;;14.43;1.65;;;26.20;54.60;;;;;;4990103;28;20093;-57
2022/06/28 11:38:06;;;;;;;4.22;1.23;;;26.20;55.20;;;;;;4990616;28;20456;-55
2022/06/28 11:40:40;;;;;;;2.45;1.02;;;25.90;58.60;;;;;;4985575;28;20038;-55
2022/06/28 11:43:11;;;;;;;4.15;0.85;;;26.10;58.30;;;;;;4984614;28;20029;-53
2022/06/28 11:45:40;;;;;;;3.80;0.95;;;26.10;59.20;;;;;;4985654;28;20057;-56
2022/06/28 11:48:09;;;;;;;4.47;0.70;;;26.20;55.40;;;;;;4986437;28;20042;-56
2022/06/28 11:50:45;;;;;;;3.83;1.13;;;26.00;56.40;;;;;;4983558;28;20062;-54
2022/06/28 11:53:12;;;;;;;2.25;1.02;;;26.00;58.50;;;;;;4985069;28;20026;-53
2022/06/28 11:55:55;;;;;;;2.70;0.90;;;25.90;58.90;;;;;;4991386;28;20361;-55
2022/06/28 11:58:23;;;;;;;2.33;0.88;;;25.70;59.70;;;;;;4992785;28;20042;-57
2022/06/28 12:01:13;;;;;;;4.75;0.93;;;25.60;60.50;;;;;;4990828;28;20452;-56
2022/06/28 12:03:42;;;;;;;2.17;0.95;;;25.80;59.50;;;;;;4982678;28;20023;-56
2022/06/28 12:06:09;;;;;;;6.75;1.02;;;25.80;57.50;;;;;;4983790;28;20650;-57
2022/06/28 12:08:50;;;;;;;3.33;1.10;;;26.00;60.40;;;;;;4988045;28;20034;-57
2022/06/28 12:11:34;;;;;;;2.13;0.75;;;25.90;60.70;;;;;;4982590;28;20021;-54
2022/06/28 12:14:02;;;;;;;3.35;1.00;;;25.90;59.40;;;;;;4971301;28;20038;-57
2022/06/28 12:16:33;;;;;;;8.27;1.05;;;25.80;57.80;;;;;;4988685;28;20456;-53
2022/06/28 12:19:01;;;;;;;4.60;0.90;;;25.40;58.30;;;;;;4989378;28;20045;-56
2022/06/28 12:21:28;;;;;;;6.72;1.20;;;25.30;60.80;;;;;;4986389;28;20042;-56
2022/06/28 12:23:55;;;;;;;1.88;0.80;;;25.10;62.20;;;;;;4985750;28;20089;-56
2022/06/28 12:26:35;;;;;;;3.72;1.08;;;25.20;59.40;;;;;;4979129;28;20117;-57
2022/06/28 12:29:01;;;;;;;3.25;1.02;;;25.10;58.40;;;;;;4989148;28;20030;-57
2022/06/28 12:31:27;;;;;;;1.77;0.82;;;25.10;60.20;;;;;;5001059;28;20049;-58
2022/06/28 12:33:52;;;;;;;1.45;1.10;;;25.10;59.20;;;;;;4979904;28;20038;-56
2022/06/28 12:36:18;;;;;;;4.90;1.30;;;25.10;61.20;;;;;;4990932;28;20111;-56
2022/06/28 12:38:43;;;;;;;1.92;1.30;;;25.10;58.00;;;;;;4983145;28;20042;-56
2022/06/28 12:41:09;;;;;;;4.57;0.98;;;24.80;60.50;;;;;;4984487;28;20805;-56
2022/06/28 12:43:35;;;;;;;2.13;0.98;;;24.80;60.70;;;;;;4986179;28;20140;-57
2022/06/28 12:46:01;;;;;;;2.92;0.85;;;25.00;60.60;;;;;;4990006;28;20045;-57
2022/06/28 12:48:26;;;;;;;6.07;0.90;;;24.80;60.00;;;;;;4986217;28;20651;-58
2022/06/28 12:50:52;;;;;;;4.95;1.05;;;24.70;60.00;;;;;;4983963;28;20026;-58
2022/06/28 12:53:20;;;;;;;2.35;0.82;;;24.80;61.20;;;;;;4990700;28;20145;-56
2022/06/28 12:55:46;;;;;;;2.25;1.13;;;24.60;59.70;;;;;;4991588;28;20054;-57